Map

Track Data

SID SEASON NUMBER BASIN SUBBASIN NAME ISO_TIME NATURE LAT LON WMO_WIND WMO_PRES WMO_AGENCY TRACK_TYPE DIST2LAND LANDFALL IFLAG USA_AGENCY USA_ATCF_ID USA_LAT USA_LON USA_RECORD USA_STATUS USA_WIND USA_PRES USA_SSHS USA_R34_NE USA_R34_SE USA_R34_SW USA_R34_NW USA_R50_NE USA_R50_SE USA_R50_SW USA_R50_NW USA_R64_NE USA_R64_SE USA_R64_SW USA_R64_NW USA_POCI USA_ROCI USA_RMW USA_EYE TOKYO_LAT TOKYO_LON TOKYO_GRADE TOKYO_WIND TOKYO_PRES TOKYO_R50_DIR TOKYO_R50_LONG TOKYO_R50_SHORT TOKYO_R30_DIR TOKYO_R30_LONG TOKYO_R30_SHORT TOKYO_LAND CMA_LAT CMA_LON CMA_CAT CMA_WIND CMA_PRES HKO_LAT HKO_LON HKO_CAT HKO_WIND HKO_PRES NEWDELHI_LAT NEWDELHI_LON NEWDELHI_GRADE NEWDELHI_WIND NEWDELHI_PRES NEWDELHI_CI NEWDELHI_DP NEWDELHI_POCI REUNION_LAT REUNION_LON REUNION_TYPE REUNION_WIND REUNION_PRES REUNION_TNUM REUNION_CI REUNION_RMW REUNION_R34_NE REUNION_R34_SE REUNION_R34_SW REUNION_R34_NW REUNION_R50_NE REUNION_R50_SE REUNION_R50_SW REUNION_R50_NW REUNION_R64_NE REUNION_R64_SE REUNION_R64_SW REUNION_R64_NW BOM_LAT BOM_LON BOM_TYPE BOM_WIND BOM_PRES BOM_TNUM BOM_CI BOM_RMW BOM_R34_NE BOM_R34_SE BOM_R34_SW BOM_R34_NW BOM_R50_NE BOM_R50_SE BOM_R50_SW BOM_R50_NW BOM_R64_NE BOM_R64_SE BOM_R64_SW BOM_R64_NW BOM_ROCI BOM_POCI BOM_EYE BOM_POS_METHOD BOM_PRES_METHOD NADI_LAT NADI_LON NADI_CAT NADI_WIND NADI_PRES WELLINGTON_LAT WELLINGTON_LON WELLINGTON_WIND WELLINGTON_PRES DS824_LAT DS824_LON DS824_STAGE DS824_WIND DS824_PRES TD9636_LAT TD9636_LON TD9636_STAGE TD9636_WIND TD9636_PRES TD9635_LAT TD9635_LON TD9635_WIND TD9635_PRES TD9635_ROCI NEUMANN_LAT NEUMANN_LON NEUMANN_CLASS NEUMANN_WIND NEUMANN_PRES MLC_LAT MLC_LON MLC_CLASS MLC_WIND MLC_PRES USA_GUST BOM_GUST BOM_GUST_PER REUNION_GUST REUNION_GUST_PER USA_SEAHGT USA_SEARAD_NE USA_SEARAD_SE USA_SEARAD_SW USA_SEARAD_NW STORM_SPEED STORM_DIR
1931030S15137 1931 10 SP EA NOT_NAMED 1931-01-29 23:30:00 NR -14.8000 137.000 bom main 55 55 ______O_______ -1 -14.8000 137.000 6 95
1931030S15137 1931 10 SP EA NOT_NAMED 1931-01-30 00:00:00 TS -14.8045 137.051 main 57 57 ______P__O____ -1 -14.8068 137.076 -14.8000 137.000 TC 8 94
1931030S15137 1931 10 SP EA NOT_NAMED 1931-01-30 03:00:00 TS -14.8373 137.505 main 77 77 ______P__P____ -1 -14.8467 137.536 -14.8232 137.458 TC 9 94
1931030S15137 1931 10 SP EA NOT_NAMED 1931-01-30 06:00:00 TS -14.8680 137.966 main 126 126 ______P__P____ -1 -14.8845 138.001 -14.8460 137.921 TC 9 94
1931030S15137 1931 10 SP EA NOT_NAMED 1931-01-30 09:00:00 TS -14.8939 138.434 main 163 168 ______P__P____ -1 -14.9189 138.473 -14.8690 138.394 TC 9 93
1931030S15137 1931 10 SP EA NOT_NAMED 1931-01-30 12:00:00 TS -14.9207 138.921 main 194 194 ______P__P____ -1 -14.9488 138.958 -14.8925 138.883 TC 10 93
1931030S15137 1931 10 SP EA NOT_NAMED 1931-01-30 15:00:00 TS -14.9450 139.426 main 227 170 ______P__P____ -1 -14.9730 139.459 -14.9171 139.393 TC 10 93
1931030S15137 1931 10 SP EA NOT_NAMED 1931-01-30 18:00:00 TS -14.9666 139.954 main 170 121 ______P__P____ -1 -14.9902 139.979 -14.9430 139.929 TC 10 92
1931030S15137 1931 10 SP EA NOT_NAMED 1931-01-30 21:00:00 TS -14.9849 140.509 main 121 82 ______P__P____ -1 -14.9992 140.523 -14.9705 140.496 TC 11 92
1931030S15137 1931 10 SP EA NOT_NAMED 1931-01-30 23:00:00 TS -14.9950 140.897 bom main 82 63 ______O__P____ -1 -15.0000 140.900 -14.9900 140.894 TC 11 91
1931030S15137 1931 10 SP EA NOT_NAMED 1931-01-31 00:00:00 TS -14.9994 141.097 main 63 0 ______P__O____ -1 -14.9989 141.094 -15.0000 141.100 TC 12 92
1931030S15137 1931 10 SP EA NOT_NAMED 1931-01-31 03:00:00 TS -15.0162 141.721 bom main 0 0 ______O__P____ -1 -15.0000 141.700 -15.0324 141.741 TC 12 92
1931030S15137 1931 10 SP EA NOT_NAMED 1931-01-31 06:00:00 TS -15.0410 142.383 main 0 0 ______P__P____ -1 -15.0093 142.363 -15.0726 142.403 TC 13 93
1931030S15137 1931 10 SP EA NOT_NAMED 1931-01-31 09:00:00 TS -15.0869 143.057 main 0 0 ______P__P____ -1 -15.0473 143.052 -15.1264 143.063 TC 17 100
1931030S15137 1931 10 SP EA NOT_NAMED 1931-01-31 11:00:00 TS -15.2880 143.852 bom main 0 0 ______O__PO___ -1 -15.1000 143.500 -15.1729 143.492 TC -16.5000 146.700 7 25 106
1931030S15137 1931 10 SP EA NOT_NAMED 1931-01-31 12:00:00 TS -15.4380 144.311 main 0 0 ______P__OP___ -1 -15.1211 143.702 -15.2000 143.700 TC -16.5478 146.748 7 17 108
1931030S15137 1931 10 SP EA NOT_NAMED 1931-01-31 15:00:00 TS -15.6451 144.999 main 0 0 ______P__PP___ -1 -15.2188 144.285 -15.2890 144.291 TC -16.6885 146.894 7 13 110
1931030S15137 1931 10 SP EA NOT_NAMED 1931-01-31 18:00:00 TS -15.8746 145.590 main 21 21 ______P__PP___ -1 -15.4043 144.875 -15.3995 144.852 TC -16.8200 147.042 7 11 112
1931030S15137 1931 10 SP EA NOT_NAMED 1931-01-31 20:00:00 TS -15.9946 145.884 bom main 44 44 ______O__PP___ -1 -15.6000 145.300 -15.4847 145.209 TC -16.8991 147.143 7 9 114
1931030S15137 1931 10 SP EA NOT_NAMED 1931-01-31 21:00:00 TS -16.0640 146.037 main 53 64 ______P__PP___ -1 -15.7261 145.533 -15.5306 145.383 TC -16.9354 147.195 7 10 116
1931030S15137 1931 10 SP EA NOT_NAMED 1931-01-31 23:00:00 TS -16.2097 146.340 bom main 85 92 ______O__PO___ -1 -16.0000 146.000 -15.6291 145.721 TC -17.0000 147.300 7 10 116
1931030S15137 1931 10 SP EA NOT_NAMED 1931-02-01 00:00:00 TS -16.2751 146.484 main 100 100 ______P__PP___ -1 -16.1158 146.214 -15.6815 145.885 TC -17.0280 147.354 7 9 115
1931030S15137 1931 10 SP EA NOT_NAMED 1931-02-01 03:00:00 TS -16.4507 146.887 main 120 120 ______P__PP___ -1 -16.4011 146.782 -15.8515 146.360 TC -17.0995 147.520 7 8 114
1931030S15137 1931 10 SP EA NOT_NAMED 1931-02-01 06:00:00 TS -16.6048 147.251 main 155 155 ______P__PP___ -1 -16.6105 147.252 -16.0395 146.808 TC -17.1643 147.694 7 7 114
1931030S15137 1931 10 SP EA NOT_NAMED 1931-02-01 09:00:00 TS -16.7496 147.583 main 177 173 ______P__PP___ -1 -16.7658 147.641 -16.2449 147.231 TC -17.2381 147.875 7 7 115
1931030S15137 1931 10 SP EA NOT_NAMED 1931-02-01 11:00:00 TS -16.8469 147.788 main 192 189 ______P__PO___ -1 -16.8498 147.864 -16.3910 147.500 TC -17.3000 148.000 7 7 117
1931030S15137 1931 10 SP EA NOT_NAMED 1931-02-01 12:00:00 TS -16.8967 147.886 main 199 199 ______P__PP___ -1 -16.8883 147.967 -16.4667 147.630 TC -17.3350 148.060 7 6 120
1931030S15137 1931 10 SP EA NOT_NAMED 1931-02-01 15:00:00 TS -17.0526 148.165 main 225 225 ______P__PP___ -1 -16.9993 148.247 -16.7040 148.005 TC -17.4544 148.243 7 6 122
1931030S15137 1931 10 SP EA NOT_NAMED 1931-02-01 18:00:00 TS -17.2247 148.431 main 245 245 ______P__PP___ -1 -17.1201 148.497 -16.9560 148.358 TC -17.5981 148.437 7 6 126
1931030S15137 1931 10 SP EA NOT_NAMED 1931-02-01 21:00:00 TS -17.4208 148.691 main 262 252 ______P__PP___ -1 -17.2716 148.737 -17.2216 148.689 TC -17.7692 148.647 7 6 130
1931030S15137 1931 10 SP EA NOT_NAMED 1931-02-01 23:00:00 TS -17.5686 148.866 bom main 256 254 ______O__PO___ -1 -17.4000 148.900 -17.4058 148.899 TC -17.9000 148.800 7 7 132
1931030S15137 1931 10 SP EA NOT_NAMED 1931-02-02 00:00:00 TS -17.6515 148.961 main 254 253 ______P__OP___ -1 -17.4859 149.001 -17.5000 149.000 TC -17.9687 148.882 7 8 133
1931030S15137 1931 10 SP EA NOT_NAMED 1931-02-02 03:00:00 TS -17.9108 149.247 main 253 237 ______P__PP___ -1 -17.7616 149.291 -17.7743 149.308 TC -18.1963 149.143 7 8 135
1931030S15137 1931 10 SP EA NOT_NAMED 1931-02-02 06:00:00 TS -18.1922 149.526 main 237 227 ______P__PP___ -1 -18.0610 149.566 -18.0667 149.591 TC -18.4489 149.422 7 8 138
1931030S15137 1931 10 SP EA NOT_NAMED 1931-02-02 09:00:00 TS -18.4907 149.797 main 227 212 ______P__PP___ -1 -18.3794 149.829 -18.3757 149.854 TC -18.7171 149.709 7 8 140
1931030S15137 1931 10 SP EA NOT_NAMED 1931-02-02 11:00:00 TS -18.6968 149.973 bom main 218 209 ______O__PO___ -1 -18.6000 150.000 -18.5903 150.019 TC -18.9000 149.900 7 8 141
1931030S15137 1931 10 SP EA NOT_NAMED 1931-02-02 12:00:00 TS -18.7998 150.062 main 216 206 ______P__OP___ -1 -18.7085 150.091 -18.7000 150.100 TC -18.9908 149.995 7 8 141
1931030S15137 1931 10 SP EA NOT_NAMED 1931-02-02 15:00:00 TS -19.1151 150.332 main 206 201 ______P__PP___ -1 -19.0447 150.361 -19.0309 150.352 TC -19.2696 150.283 7 8 142
1931030S15137 1931 10 SP EA NOT_NAMED 1931-02-02 18:00:00 TS -19.4406 150.591 main 213 208 ______P__PP___ -1 -19.3944 150.619 -19.3763 150.588 TC -19.5510 150.565 7 8 144
1931030S15137 1931 10 SP EA NOT_NAMED 1931-02-02 21:00:00 TS -19.7713 150.832 main 213 213 ______P__PP___ -1 -19.7549 150.857 -19.7336 150.806 TC -19.8255 150.834 7 8 147
1931030S15137 1931 10 SP EA NOT_NAMED 1931-02-02 23:00:00 TS -19.9923 150.979 bom main 224 218 ______O__PO___ -1 -20.0000 151.000 -19.9770 150.938 TC -20.0000 151.000 7 8 149
1931030S15137 1931 10 SP EA NOT_NAMED 1931-02-03 00:00:00 TS -20.1022 151.048 main 218 216 ______P__OP___ -1 -20.1263 151.064 -20.1000 151.000 TC -20.0804 151.081 7 8 152
1931030S15137 1931 10 SP EA NOT_NAMED 1931-02-03 03:00:00 TS -20.4379 151.237 main 222 192 ______P__PP___ -1 -20.5159 151.235 -20.4875 151.169 TC -20.3102 151.307 7 8 154
1931030S15137 1931 10 SP EA NOT_NAMED 1931-02-03 06:00:00 TS -20.7787 151.399 main 192 167 ______P__PP___ -1 -20.9168 151.375 -20.8892 151.311 TC -20.5301 151.511 7 7 158
1931030S15137 1931 10 SP EA NOT_NAMED 1931-02-03 09:00:00 TS -21.1235 151.538 main 167 145 ______P__PP___ -1 -21.3229 151.491 -21.2981 151.432 TC -20.7495 151.692 7 7 160
1931030S15137 1931 10 SP EA NOT_NAMED 1931-02-03 11:00:00 TS -21.3548 151.620 main 145 144 ______P__PO___ -1 -21.5933 151.558 -21.5712 151.503 TC -20.9000 151.800 7 7 162
1931030S15137 1931 10 SP EA NOT_NAMED 1931-02-03 12:00:00 TS -21.4708 151.659 main 144 121 ______P__PP___ -1 -21.7277 151.589 -21.7071 151.537 TC -20.9775 151.852 7 7 163
1931030S15137 1931 10 SP EA NOT_NAMED 1931-02-03 15:00:00 TS -21.8161 151.766 main 129 112 ______P__PP___ -1 -22.1251 151.676 -22.1089 151.631 TC -21.2144 151.991 7 7 165
1931030S15137 1931 10 SP EA NOT_NAMED 1931-02-03 18:00:00 TS -22.1552 151.863 main 117 113 ______P__PP___ -1 -22.5086 151.758 -22.4965 151.719 TC -21.4606 152.112 7 7 165
1931030S15137 1931 10 SP EA NOT_NAMED 1931-02-03 21:00:00 TS -22.4846 151.958 main 123 123 ______P__PP___ -1 -22.8721 151.841 -22.8625 151.807 TC -21.7192 152.225 7 7 164
1931030S15137 1931 10 SP EA NOT_NAMED 1931-02-03 23:00:00 TS -22.6970 152.023 982 bom main 123 122 ______O__PO___ -1 -23.1000 151.900 982 4 -23.0911 151.868 TC -21.9000 152.300 7 7 163
1931030S15137 1931 10 SP EA NOT_NAMED 1931-02-04 00:00:00 TS -22.8063 152.063 main 133 118 ______P__OP___ -1 -23.2244 151.945 -23.2000 151.900 TC 55 982 -21.9945 152.343 7 7 160
1931030S15137 1931 10 SP EA NOT_NAMED 1931-02-04 03:00:00 TS -23.1429 152.197 main 118 84 ______P__PP___ -1 -23.5906 152.084 -23.5486 152.035 TC -22.2896 152.472 7 7 159
1931030S15137 1931 10 SP EA NOT_NAMED 1931-02-04 06:00:00 TS -23.4703 152.333 main 84 75 ______P__PP___ -1 -23.9388 152.226 -23.8775 152.175 TC -22.5947 152.600 7 7 159
1931030S15137 1931 10 SP EA NOT_NAMED 1931-02-04 09:00:00 TS -23.7795 152.468 main 75 64 ______P__PP___ -1 -24.2592 152.367 -24.1789 152.314 TC -22.9005 152.722 7 7 158
1931030S15137 1931 10 SP EA NOT_NAMED 1931-02-04 11:00:00 TS -23.9711 152.555 main 74 71 ______P__PO___ -1 -24.4526 152.459 -24.3607 152.406 TC -23.1000 152.800 7 6 157
1931030S15137 1931 10 SP EA NOT_NAMED 1931-02-04 12:00:00 TS -24.0636 152.598 main 71 63 ______P__PP___ -1 -24.5421 152.503 -24.4450 152.451 TC -23.2036 152.839 7 6 157
1931030S15137 1931 10 SP EA NOT_NAMED 1931-02-04 15:00:00 TS -24.3194 152.722 main 63 45 ______P__PP___ -1 -24.7776 152.631 -24.6680 152.582 TC -23.5126 152.952 7 5 155
1931030S15137 1931 10 SP EA NOT_NAMED 1931-02-04 18:00:00 TS -24.5334 152.835 main 45 23 ______P__PP___ -1 -24.9560 152.746 -24.8400 152.703 TC -23.8040 153.056 7 4 153
1931030S15137 1931 10 SP EA NOT_NAMED 1931-02-04 21:00:00 TS -24.6934 152.934 main 23 10 ______P__PP___ -1 -25.0676 152.845 -24.9533 152.810 TC -24.0593 153.147 7 3 148
1931030S15137 1931 10 SP EA NOT_NAMED 1931-02-04 23:00:00 TS -24.7641 152.991 bom main 10 10 ______O__PO___ -1 -25.1000 152.900 -24.9923 152.872 TC -24.2000 153.200 7 2 142
1931030S15137 1931 10 SP EA NOT_NAMED 1931-02-05 00:00:00 TS -24.7820 153.008 main 10 10 ______P__OP___ -1 -25.0893 152.903 -25.0000 152.900 TC -24.2568 153.221 7 0 106
1931030S15137 1931 10 SP EA NOT_NAMED 1931-02-05 03:00:00 TS -24.7751 153.024 main 10 10 ______P__PP___ -1 -24.9985 152.892 -24.9383 152.909 TC -24.3886 153.272 7 1 16
1931030S15137 1931 10 SP EA NOT_NAMED 1931-02-05 06:00:00 TS -24.7061 153.023 main 15 15 ______P__PP___ -1 -24.8349 152.859 -24.8037 152.894 TC -24.4796 153.314 7 2 354
1931030S15137 1931 10 SP EA NOT_NAMED 1931-02-05 09:00:00 TS -24.5950 153.017 main 24 24 ______P__PP___ -1 -24.6185 152.821 -24.6147 152.869 TC -24.5516 153.361 7 2 0
1931030S15137 1931 10 SP EA NOT_NAMED 1931-02-05 11:00:00 TS -24.5075 153.018 main 35 35 ______P__PO___ -1 -24.4549 152.799 -24.4676 152.855 TC -24.6000 153.400 7 3 1
1931030S15137 1931 10 SP EA NOT_NAMED 1931-02-05 12:00:00 TS -24.4638 153.021 main 35 35 ______P__PP___ -1 -24.3695 152.792 -24.3898 152.850 TC -24.6321 153.421 7 3 7
1931030S15137 1931 10 SP EA NOT_NAMED 1931-02-05 15:00:00 TS -24.3276 153.042 main 56 55 ______P__PP___ -1 -24.1077 152.786 -24.1474 152.849 TC -24.7278 153.491 7 3 14
1931030S15137 1931 10 SP EA NOT_NAMED 1931-02-05 18:00:00 TS -24.1948 153.094 main 67 67 ______P__PP___ -1 -23.8533 152.819 -23.9060 152.881 TC -24.8252 153.581 7 3 27
1931030S15137 1931 10 SP EA NOT_NAMED 1931-02-05 21:00:00 TS -24.0793 153.188 main 78 78 ______P__PP___ -1 -23.6263 152.906 -23.6841 152.960 TC -24.9275 153.700 7 3 45
1931030S15137 1931 10 SP EA NOT_NAMED 1931-02-05 23:00:00 TS -24.0187 153.282 bom main 89 89 ______O__PO___ -1 -23.5000 153.000 -23.5560 153.046 TC -25.0000 153.800 7 3 62
1931030S15137 1931 10 SP EA NOT_NAMED 1931-02-06 00:00:00 TS -24.0037 153.344 main 89 89 ______P__OP___ -1 -23.4703 153.074 -23.5000 153.100 TC -25.0408 153.858 7 4 82
1931030S15137 1931 10 SP EA NOT_NAMED 1931-02-06 03:00:00 TS -23.9806 153.570 main 94 94 ______P__PP___ -1 -23.4044 153.339 -23.3678 153.311 TC -25.1698 154.060 7 5 88
1931030S15137 1931 10 SP EA NOT_NAMED 1931-02-06 06:00:00 TS -23.9846 153.847 main 102 108 ______P__PP___ -1 -23.3683 153.662 -23.2843 153.587 TC -25.3011 154.292 7 5 93
1931030S15137 1931 10 SP EA NOT_NAMED 1931-02-06 09:00:00 TS -24.0076 154.162 main 127 127 ______P__PP___ -1 -23.3550 154.031 -23.2423 153.919 TC -25.4255 154.537 7 6 95
1931030S15137 1931 10 SP EA NOT_NAMED 1931-02-06 11:00:00 TS -24.0298 154.388 main 142 142 ______P__PO___ -1 -23.3556 154.296 -23.2337 154.167 TC -25.5000 154.700 7 6 96
1931030S15137 1931 10 SP EA NOT_NAMED 1931-02-06 12:00:00 TS -24.0417 154.499 main 150 150 ______P__PP___ -1 -23.3579 154.433 -23.2345 154.298 TC -25.5328 154.766 7 6 97
1931030S15137 1931 10 SP EA NOT_NAMED 1931-02-06 15:00:00 TS -24.0815 154.845 main 170 179 ______P__PP___ -1 -23.3703 154.857 -23.2535 154.715 TC -25.6206 154.962 7 7 97
1931030S15137 1931 10 SP EA NOT_NAMED 1931-02-06 18:00:00 TS -24.1244 155.207 main 207 207 ______P__PP___ -1 -23.3855 155.290 -23.2921 155.161 TC -25.6954 155.170 7 7 103
1931030S15137 1931 10 SP EA NOT_NAMED 1931-02-06 21:00:00 TS -24.2419 155.582 main 239 235 ______P__PP___ -1 -23.3972 155.721 -23.3433 155.625 TC -25.7605 155.410 7 7 112
1931030S15137 1931 10 SP EA NOT_NAMED 1931-02-06 23:00:00 TS -24.3562 155.828 bom main 251 251 ______O__PO___ -1 -23.4000 156.000 -23.3809 155.941 TC -25.8000 155.600 7 8 126
1931030S15137 1931 10 SP EA NOT_NAMED 1931-02-07 00:00:00 TS -24.4764 155.943 main 258 268 ______P__OP___ -1 -23.3992 156.136 -23.4000 156.100 TC -25.8226 155.711 7 8 123
1931030S15137 1931 10 SP EA NOT_NAMED 1931-02-07 03:00:00 NR -24.6370 156.307 main 295 295 ______P___P___ -1 -23.3882 156.530 TC -25.8858 156.083 7 7 104
1931030S15137 1931 10 SP EA NOT_NAMED 1931-02-07 06:00:00 NR -24.6526 156.700 main 334 334 ______P___P___ -1 -23.3656 156.905 TC -25.9396 156.495 7 7 92
1931030S15137 1931 10 SP EA NOT_NAMED 1931-02-07 09:00:00 NR -24.6570 157.092 main 374 374 ______P___P___ -1 -23.3331 157.263 TC -25.9809 156.921 7 7 90
1931030S15137 1931 10 SP EA NOT_NAMED 1931-02-07 11:00:00 NR -24.6534 157.347 main 394 404 ______P___O___ -1 -23.3069 157.494 TC -26.0000 157.200 7 7 89
1931030S15137 1931 10 SP EA NOT_NAMED 1931-02-07 12:00:00 NR -24.6497 157.472 main 415 415 ______P___P___ -1 -23.2925 157.608 TC -26.0068 157.336 7 7 87
1931030S15137 1931 10 SP EA NOT_NAMED 1931-02-07 15:00:00 NR -24.6313 157.834 main 446 456 ______P___P___ -1 -23.2453 157.941 TC -26.0174 157.727 7 6 86
1931030S15137 1931 10 SP EA NOT_NAMED 1931-02-07 18:00:00 NR -24.6048 158.184 main 486 486 ______P___P___ -1 -23.1933 158.267 TC -26.0164 158.100 7 6 85
1931030S15137 1931 10 SP EA NOT_NAMED 1931-02-07 21:00:00 NR -24.5729 158.525 main 516 516 ______P___P___ -1 -23.1379 158.588 TC -26.0079 158.462 7 6 84
1931030S15137 1931 10 SP EA NOT_NAMED 1931-02-07 23:00:00 NR -24.5500 158.750 bom main 547 ______O___O___ -1 -23.1000 158.800 TC -26.0000 158.700 7 6 84

Digital Typhoon Data and Search

About IBTrACS Database

This database is a web-friendly format of International Best Track Archive for Climate Stewardship (IBTrACS), a global best track data archive curated by NOAA dating back to 1842.

Updated: 2021-10-21